createdAt,value
2023-01-25T00:00:17.117Z,76.07
2023-01-25T00:03:39.320Z,68.83
2023-01-25T00:06:41.293Z,71.50
2023-01-25T00:09:43.521Z,75.27
2023-01-25T00:12:45.632Z,69.53
2023-01-25T00:15:48.187Z,72.03
2023-01-25T00:18:50.626Z,71.33
2023-01-25T00:21:52.877Z,68.30
2023-01-25T00:24:54.852Z,84.43
2023-01-25T00:27:57.127Z,89.63
2023-01-25T00:31:01.132Z,83.00
2023-01-25T00:34:22.183Z,82.33
2023-01-25T00:37:39.698Z,74.43
2023-01-25T00:40:41.919Z,74.03
2023-01-25T00:43:43.913Z,76.00
2023-01-25T00:46:46.340Z,71.67
2023-01-25T00:49:48.431Z,75.20
2023-01-25T00:52:50.787Z,73.67
2023-01-25T00:55:53.860Z,71.50
2023-01-25T00:58:56.058Z,68.43
2023-01-25T01:01:58.610Z,82.27
2023-01-25T01:05:01.295Z,74.80
2023-01-25T01:08:03.661Z,79.47
2023-01-25T01:11:08.403Z,75.30
2023-01-25T01:14:10.901Z,75.77
2023-01-25T01:17:13.174Z,76.77
2023-01-25T01:20:15.580Z,73.40
2023-01-25T01:23:17.965Z,74.43
2023-01-25T01:26:20.121Z,73.03
2023-01-25T01:29:22.424Z,73.13
2023-01-25T01:32:24.649Z,74.57
2023-01-25T01:35:28.671Z,80.13
2023-01-25T01:38:30.629Z,69.30
2023-01-25T01:41:33.016Z,78.70
2023-01-25T01:44:51.333Z,77.43
2023-01-25T01:47:53.602Z,73.37
2023-01-25T01:50:58.814Z,72.70
2023-01-25T01:54:09.080Z,70.37
2023-01-25T01:57:18.447Z,66.80
2023-01-25T02:00:34.060Z,74.97
2023-01-25T02:03:36.343Z,72.77
2023-01-25T02:07:08.028Z,71.37
2023-01-25T02:10:12.925Z,73.93
2023-01-25T02:13:15.494Z,74.60
2023-01-25T02:16:22.573Z,74.53
2023-01-25T02:19:52.387Z,75.27
2023-01-25T02:23:06.735Z,76.40
2023-01-25T02:26:10.156Z,79.03
2023-01-25T02:29:13.194Z,73.07
2023-01-25T02:32:15.654Z,72.03
2023-01-25T02:35:22.932Z,71.20
2023-01-25T02:38:25.634Z,73.50
2023-01-25T02:41:36.308Z,76.00
2023-01-25T02:44:39.067Z,71.60
2023-01-25T02:47:41.003Z,75.73
2023-01-25T02:50:43.303Z,76.10
2023-01-25T02:53:45.368Z,72.43
2023-01-25T02:56:48.114Z,70.67
2023-01-25T02:59:50.199Z,77.53
2023-01-25T03:02:52.494Z,71.33
2023-01-25T03:05:54.628Z,74.83
2023-01-25T03:08:57.208Z,80.47
2023-01-25T03:11:59.156Z,72.63
2023-01-25T03:15:01.499Z,69.17
2023-01-25T03:18:04.492Z,77.73
2023-01-25T03:21:16.725Z,80.37
2023-01-25T03:24:18.696Z,83.27
2023-01-25T03:27:21.109Z,84.20
2023-01-25T03:30:23.195Z,81.47
2023-01-25T03:33:25.560Z,73.73
2023-01-25T03:36:27.815Z,80.90
2023-01-25T03:39:30.086Z,75.67
2023-01-25T03:42:32.053Z,76.10
2023-01-25T03:45:34.358Z,76.40
2023-01-25T03:48:36.390Z,78.73
2023-01-25T03:51:38.853Z,79.83
2023-01-25T03:54:40.825Z,77.43
2023-01-25T03:57:43.144Z,71.90
2023-01-25T04:00:45.125Z,74.33
2023-01-25T04:03:47.502Z,78.87
2023-01-25T04:06:49.543Z,75.17
2023-01-25T04:09:52.192Z,75.77
2023-01-25T04:12:54.150Z,74.73
2023-01-25T04:15:56.427Z,69.53
2023-01-25T04:18:58.423Z,61.93
2023-01-25T04:22:01.311Z,57.70
2023-01-25T04:25:03.410Z,53.67
2023-01-25T04:28:05.752Z,57.17
2023-01-25T04:31:07.931Z,60.03
2023-01-25T04:34:10.171Z,54.73
2023-01-25T04:37:12.243Z,59.60
2023-01-25T04:40:14.670Z,62.97
2023-01-25T04:43:19.311Z,59.83
2023-01-25T04:46:21.726Z,68.97
2023-01-25T04:49:23.734Z,71.77
2023-01-25T04:52:26.045Z,75.87
2023-01-25T04:55:28.018Z,72.10
2023-01-25T04:58:30.236Z,67.03
2023-01-25T05:01:33.554Z,73.17
2023-01-25T05:04:35.843Z,75.07
2023-01-25T05:07:38.035Z,69.13
2023-01-25T05:10:40.291Z,68.17
2023-01-25T05:13:42.315Z,74.43
2023-01-25T05:16:44.650Z,69.23
2023-01-25T05:19:46.735Z,70.77
2023-01-25T05:22:48.973Z,75.50
2023-01-25T05:26:09.706Z,65.50
2023-01-25T05:29:12.002Z,63.50
2023-01-25T05:32:22.511Z,63.70
2023-01-25T05:35:24.847Z,51.43
2023-01-25T05:38:26.841Z,49.57
2023-01-25T05:41:30.857Z,49.03
2023-01-25T05:44:32.791Z,47.73
2023-01-25T05:47:35.293Z,46.60
2023-01-25T05:50:37.275Z,41.77
2023-01-25T05:53:39.585Z,41.10
2023-01-25T05:56:42.405Z,41.00
2023-01-25T05:59:44.807Z,42.17
2023-01-25T06:02:46.921Z,42.80
2023-01-25T06:05:58.202Z,40.30
2023-01-25T06:09:01.542Z,37.27
2023-01-25T06:12:06.099Z,39.07
2023-01-25T06:15:08.855Z,39.07
2023-01-25T06:18:11.276Z,38.73
2023-01-25T06:21:13.292Z,38.10
2023-01-25T06:24:15.561Z,41.20
2023-01-25T06:27:17.602Z,39.67
2023-01-25T06:30:20.045Z,38.67
2023-01-25T06:33:22.056Z,54.37
2023-01-25T06:36:24.341Z,84.83
2023-01-25T06:39:26.359Z,72.73
2023-01-25T06:42:28.652Z,63.97
2023-01-25T06:45:30.618Z,59.63
2023-01-25T06:48:33.602Z,47.23
2023-01-25T06:51:35.555Z,42.33
2023-01-25T06:54:37.827Z,48.83
2023-01-25T06:57:39.899Z,40.83
2023-01-25T07:00:42.201Z,33.20
2023-01-25T07:03:44.189Z,34.70
2023-01-25T07:06:46.438Z,31.27
2023-01-25T07:09:48.810Z,34.70
2023-01-25T07:12:51.411Z,19.20
2023-01-25T07:16:01.593Z,38.13
2023-01-25T07:19:10.505Z,44.73
2023-01-25T07:22:12.698Z,42.10
2023-01-25T07:25:15.048Z,39.33
2023-01-25T07:28:17.654Z,31.73
2023-01-25T07:31:21.105Z,23.13
2023-01-25T07:34:23.261Z,21.83
2023-01-25T07:37:27.816Z,15.87
2023-01-25T07:40:29.852Z,11.23
2023-01-25T07:43:32.597Z,19.40
2023-01-25T07:46:34.691Z,19.03
2023-01-25T07:49:36.988Z,19.93
2023-01-25T07:52:39.035Z,22.27
2023-01-25T07:55:41.283Z,24.20
2023-01-25T07:58:43.272Z,15.50
2023-01-25T08:01:45.618Z,11.90
2023-01-25T08:04:47.621Z,32.90
2023-01-25T08:07:49.916Z,12.30
2023-01-25T08:10:51.961Z,18.10
2023-01-25T08:13:54.797Z,56.07
2023-01-25T08:16:56.776Z,30.73
2023-01-25T08:20:00.328Z,83.07
2023-01-25T08:23:03.774Z,26.87
2023-01-25T08:26:08.883Z,13.90
2023-01-25T08:29:12.427Z,15.70
2023-01-25T08:32:16.176Z,21.00
2023-01-25T08:35:18.141Z,13.33
2023-01-25T08:38:21.362Z,14.87
2023-01-25T08:41:24.023Z,14.07
2023-01-25T08:44:26.462Z,10.70
2023-01-25T08:47:28.457Z,10.90
2023-01-25T08:50:30.779Z,10.30
2023-01-25T08:53:33.304Z,10.90
2023-01-25T08:56:38.177Z,11.73
2023-01-25T08:59:40.267Z,10.57
2023-01-25T09:02:42.698Z,11.33
2023-01-25T09:05:44.816Z,12.80
2023-01-25T09:08:47.936Z,9.97
2023-01-25T09:11:50.041Z,15.63
2023-01-25T09:14:52.350Z,15.03
2023-01-25T09:17:55.824Z,14.80
2023-01-25T09:20:58.660Z,14.93
2023-01-25T09:24:08.805Z,13.30
2023-01-25T09:27:11.964Z,12.30
2023-01-25T09:30:18.760Z,13.50
2023-01-25T09:33:24.596Z,12.33
2023-01-25T09:36:26.702Z,12.97
2023-01-25T09:39:28.937Z,14.27
2023-01-25T09:42:53.365Z,16.37
2023-01-25T09:45:55.689Z,15.03
2023-01-25T09:49:28.317Z,17.47
2023-01-25T09:52:50.809Z,16.07
2023-01-25T09:55:58.788Z,17.47
2023-01-25T09:59:05.655Z,21.80
2023-01-25T10:02:19.522Z,16.20
2023-01-25T10:05:30.308Z,17.97
2023-01-25T10:08:58.990Z,16.77
2023-01-25T10:12:25.904Z,16.20
2023-01-25T10:15:33.096Z,17.63
2023-01-25T10:19:03.950Z,18.13
2023-01-25T10:22:23.735Z,17.43
2023-01-25T10:25:35.808Z,16.03
2023-01-25T10:28:48.902Z,17.90
2023-01-25T10:31:53.890Z,16.97
2023-01-25T10:34:58.641Z,16.23
2023-01-25T10:38:06.844Z,19.50
2023-01-25T10:41:32.692Z,20.20
2023-01-25T10:44:36.000Z,15.43
2023-01-25T10:47:42.244Z,16.13
2023-01-25T10:50:48.020Z,18.73
2023-01-25T10:53:59.935Z,16.60
2023-01-25T10:57:02.237Z,16.70
2023-01-25T11:00:11.011Z,15.17
2023-01-25T11:03:21.302Z,16.33
2023-01-25T11:06:35.079Z,14.27
2023-01-25T11:09:39.320Z,26.27
2023-01-25T11:12:41.407Z,29.70
2023-01-25T11:16:00.104Z,25.20
2023-01-25T11:19:21.703Z,29.13
2023-01-25T11:22:28.733Z,42.47
2023-01-25T11:25:31.977Z,29.03
2023-01-25T11:28:34.281Z,29.77
2023-01-25T11:31:36.586Z,22.27
2023-01-25T11:34:39.018Z,24.33
2023-01-25T11:38:08.124Z,23.93
2023-01-25T11:41:18.265Z,31.77
2023-01-25T11:44:35.244Z,41.57
2023-01-25T11:47:44.814Z,23.80
2023-01-25T11:51:15.969Z,25.40
2023-01-25T11:54:27.079Z,23.10
2023-01-25T11:57:57.963Z,21.50
2023-01-25T12:01:37.786Z,22.43
2023-01-25T12:04:54.238Z,19.43
2023-01-25T12:08:32.901Z,23.50
2023-01-25T12:11:56.931Z,23.97
2023-01-25T12:15:02.283Z,24.33
2023-01-25T12:18:23.078Z,22.97
2023-01-25T12:21:52.271Z,20.83
2023-01-25T12:25:26.028Z,21.57
2023-01-25T12:28:41.486Z,23.93
2023-01-25T12:32:15.428Z,22.23
2023-01-25T12:36:07.496Z,22.47
2023-01-25T12:39:12.827Z,25.83
2023-01-25T12:42:23.035Z,25.17
2023-01-25T12:45:29.102Z,22.60
2023-01-25T12:48:38.240Z,22.13
2023-01-25T12:51:42.919Z,23.53
2023-01-25T12:54:47.612Z,25.23
2023-01-25T12:58:04.049Z,30.27
2023-01-25T13:01:31.914Z,24.80
2023-01-25T13:05:01.006Z,27.37
2023-01-25T13:08:32.188Z,37.27
2023-01-25T13:11:40.570Z,26.67
2023-01-25T13:14:43.025Z,26.50
2023-01-25T13:17:45.303Z,27.80
2023-01-25T13:20:49.765Z,31.10
2023-01-25T13:24:11.948Z,32.10
2023-01-25T13:27:32.137Z,31.53
2023-01-25T13:30:34.775Z,31.87
2023-01-25T13:33:37.200Z,34.63
2023-01-25T13:36:41.888Z,33.90
2023-01-25T13:39:46.066Z,30.37
2023-01-25T13:43:16.060Z,30.73
2023-01-25T13:46:23.993Z,32.73
2023-01-25T13:49:33.624Z,34.00
2023-01-25T13:52:36.492Z,33.83
2023-01-25T13:55:57.988Z,34.33
2023-01-25T13:59:01.758Z,33.67
2023-01-25T14:02:06.513Z,33.20
2023-01-25T14:05:19.455Z,38.03
2023-01-25T14:08:22.195Z,38.97
2023-01-25T14:11:28.062Z,33.70
2023-01-25T14:14:31.540Z,34.83
2023-01-25T14:17:33.852Z,31.43
2023-01-25T14:20:35.915Z,32.83
2023-01-25T14:23:38.539Z,37.17
2023-01-25T14:26:41.997Z,35.67
2023-01-25T14:29:49.059Z,37.03
2023-01-25T14:32:55.566Z,39.23
2023-01-25T14:36:28.645Z,37.53
2023-01-25T14:39:32.930Z,35.17
2023-01-25T14:42:35.438Z,38.40
2023-01-25T14:45:38.048Z,39.00
2023-01-25T14:48:42.216Z,38.20
2023-01-25T14:51:51.095Z,45.83
2023-01-25T14:55:00.542Z,38.90
2023-01-25T14:58:02.926Z,39.37
2023-01-25T15:01:27.811Z,40.20
2023-01-25T15:04:30.089Z,39.20
2023-01-25T15:07:41.287Z,39.67
2023-01-25T15:10:54.986Z,33.63
2023-01-25T15:14:14.478Z,37.63
2023-01-25T15:17:43.265Z,35.03
2023-01-25T15:20:49.577Z,41.00
2023-01-25T15:23:53.052Z,39.63
2023-01-25T15:26:56.029Z,39.27
2023-01-25T15:29:59.350Z,40.13
2023-01-25T15:33:02.197Z,41.20
2023-01-25T15:36:04.468Z,41.73
2023-01-25T15:39:14.574Z,43.10
2023-01-25T15:42:16.629Z,41.20
2023-01-25T15:45:19.048Z,41.47
2023-01-25T15:48:29.841Z,46.30
2023-01-25T15:51:35.382Z,42.00
2023-01-25T15:54:37.736Z,40.00
2023-01-25T15:57:43.274Z,47.20
2023-01-25T16:00:45.330Z,45.83
2023-01-25T16:03:47.705Z,54.50
2023-01-25T16:06:52.449Z,50.40
2023-01-25T16:09:54.818Z,51.07
2023-01-25T16:12:56.895Z,54.50
2023-01-25T16:15:59.249Z,51.23
2023-01-25T16:19:01.437Z,62.57
2023-01-25T16:22:03.842Z,54.40
2023-01-25T16:25:08.868Z,60.87
2023-01-25T16:28:17.786Z,53.33
2023-01-25T16:31:31.919Z,49.27
2023-01-25T16:34:35.024Z,50.23
2023-01-25T16:37:37.028Z,50.67
2023-01-25T16:40:39.813Z,59.83
2023-01-25T16:43:46.460Z,56.73
2023-01-25T16:46:50.189Z,46.50
2023-01-25T16:49:52.269Z,45.03
2023-01-25T16:52:54.909Z,55.43
2023-01-25T16:55:59.583Z,68.73
2023-01-25T16:59:05.182Z,50.63
2023-01-25T17:02:07.266Z,49.97
2023-01-25T17:05:10.054Z,46.70
2023-01-25T17:08:12.107Z,50.63
2023-01-25T17:11:15.060Z,49.67
2023-01-25T17:14:18.951Z,52.63
2023-01-25T17:17:21.743Z,47.43
2023-01-25T17:20:24.123Z,49.20
2023-01-25T17:23:27.874Z,52.83
2023-01-25T17:26:31.763Z,53.87
2023-01-25T17:29:34.140Z,52.47
2023-01-25T17:32:36.148Z,51.57
2023-01-25T17:35:38.729Z,62.90
2023-01-25T17:38:41.023Z,68.13
2023-01-25T17:41:44.673Z,80.70
2023-01-25T17:44:46.710Z,105.43
2023-01-25T17:47:49.001Z,115.87
2023-01-25T17:51:01.776Z,95.53
2023-01-25T17:54:05.058Z,74.23
2023-01-25T17:57:07.142Z,71.57
2023-01-25T18:00:11.952Z,63.67
2023-01-25T18:03:14.276Z,67.73
2023-01-25T18:06:19.708Z,86.03
2023-01-25T18:09:21.986Z,77.80
2023-01-25T18:12:24.233Z,88.20
2023-01-25T18:15:26.248Z,66.10
2023-01-25T18:18:28.940Z,137.07
2023-01-25T18:21:33.039Z,106.67
2023-01-25T18:24:36.596Z,92.13
2023-01-25T18:27:38.650Z,92.30
2023-01-25T18:30:51.729Z,81.43
2023-01-25T18:33:55.897Z,60.40
2023-01-25T18:36:59.476Z,68.13
2023-01-25T18:40:01.755Z,67.47
2023-01-25T18:43:04.435Z,74.33
2023-01-25T18:46:07.835Z,76.57
2023-01-25T18:49:10.755Z,79.93
2023-01-25T18:52:12.774Z,93.33
2023-01-25T18:55:15.217Z,99.50
2023-01-25T18:58:17.295Z,83.90
2023-01-25T19:01:24.096Z,76.30
2023-01-25T19:04:27.530Z,81.63
2023-01-25T19:07:30.172Z,71.03
2023-01-25T19:10:33.475Z,60.03
2023-01-25T19:13:38.422Z,50.00
2023-01-25T19:16:40.496Z,52.27
2023-01-25T19:19:44.196Z,52.63
2023-01-25T19:22:47.885Z,51.67
2023-01-25T19:25:56.996Z,54.83
2023-01-25T19:28:59.373Z,59.37
2023-01-25T19:32:04.860Z,61.33
2023-01-25T19:35:07.853Z,65.17
2023-01-25T19:38:10.889Z,63.47
2023-01-25T19:41:24.718Z,60.13
2023-01-25T19:44:29.715Z,61.30
2023-01-25T19:47:32.657Z,69.97
2023-01-25T19:50:35.352Z,73.80
2023-01-25T19:53:38.916Z,89.30
2023-01-25T19:56:42.932Z,67.87
2023-01-25T19:59:45.373Z,59.57
2023-01-25T20:02:48.014Z,74.40
2023-01-25T20:05:58.925Z,73.03
2023-01-25T20:09:02.026Z,70.80
2023-01-25T20:12:07.906Z,68.40
2023-01-25T20:15:13.325Z,92.20
2023-01-25T20:18:16.631Z,104.07
2023-01-25T20:21:21.296Z,70.17
2023-01-25T20:24:23.967Z,65.77
2023-01-25T20:27:26.555Z,69.70
2023-01-25T20:30:28.720Z,68.37
2023-01-25T20:33:32.879Z,84.80
2023-01-25T20:36:35.908Z,76.20
2023-01-25T20:39:38.528Z,73.43
2023-01-25T20:42:40.764Z,87.27
2023-01-25T20:45:43.601Z,79.10
2023-01-25T20:48:46.438Z,78.03
2023-01-25T20:51:49.108Z,76.23
2023-01-25T20:54:52.298Z,80.73
2023-01-25T20:57:54.991Z,77.20
2023-01-25T21:00:57.773Z,78.27
2023-01-25T21:04:00.822Z,74.20
2023-01-25T21:07:02.984Z,80.30
2023-01-25T21:10:06.033Z,86.60
2023-01-25T21:13:08.184Z,81.27
2023-01-25T21:16:21.759Z,86.77
2023-01-25T21:19:24.172Z,80.90
2023-01-25T21:22:29.251Z,92.50
2023-01-25T21:25:31.504Z,91.57
2023-01-25T21:28:35.147Z,91.13
2023-01-25T21:31:39.787Z,103.23
2023-01-25T21:34:42.158Z,105.90
2023-01-25T21:37:46.584Z,101.00
2023-01-25T21:40:49.041Z,82.93
2023-01-25T21:44:11.911Z,79.53
2023-01-25T21:47:29.405Z,80.30
2023-01-25T21:50:51.001Z,96.80
2023-01-25T21:53:53.297Z,79.73
2023-01-25T21:56:56.651Z,78.80
2023-01-25T21:59:59.257Z,89.90
2023-01-25T22:03:02.103Z,76.63
2023-01-25T22:06:04.591Z,76.90
2023-01-25T22:09:07.643Z,78.43
2023-01-25T22:12:11.681Z,75.57
2023-01-25T22:15:13.687Z,81.47
2023-01-25T22:18:15.993Z,77.43
2023-01-25T22:21:27.310Z,80.17
2023-01-25T22:24:31.795Z,80.43
2023-01-25T22:27:46.662Z,83.63
2023-01-25T22:30:49.148Z,84.93
2023-01-25T22:33:52.257Z,93.13
2023-01-25T22:36:54.558Z,86.90
2023-01-25T22:39:58.479Z,95.33
2023-01-25T22:43:00.863Z,92.43
2023-01-25T22:46:03.894Z,89.43
2023-01-25T22:49:06.140Z,89.17
2023-01-25T22:52:08.153Z,91.10
2023-01-25T22:55:10.441Z,89.17
2023-01-25T22:58:12.396Z,101.20
2023-01-25T23:01:18.533Z,91.87
2023-01-25T23:04:20.764Z,88.37
2023-01-25T23:07:23.051Z,89.97
2023-01-25T23:10:25.073Z,88.63
2023-01-25T23:13:28.031Z,88.00
2023-01-25T23:16:30.812Z,90.27
2023-01-25T23:19:33.057Z,90.80
2023-01-25T23:22:35.218Z,86.03
2023-01-25T23:25:39.206Z,84.97
2023-01-25T23:28:42.169Z,90.93
2023-01-25T23:31:45.007Z,88.50
2023-01-25T23:34:54.184Z,84.07
2023-01-25T23:37:56.827Z,86.87
2023-01-25T23:41:01.411Z,85.73
2023-01-25T23:44:07.091Z,85.67
2023-01-25T23:47:09.117Z,76.93
2023-01-25T23:50:12.175Z,82.77
2023-01-25T23:53:14.280Z,88.60
2023-01-25T23:56:20.014Z,88.97
2023-01-25T23:59:22.236Z,95.20
